Au Train, MI (49806)

11:25 AM EDT on September 01, 2015 (GMT -0400)
MesoWest | | Change Station
CLOSE
Current Station
Personal Weather Station
Location: Au Train, MI
Elevation: 609 ft
Nearby Weather Stations

Elev 609 ft 46.43 °N, 86.84 °W | Updated 35 minutes ago

Mostly Cloudy
Mostly Cloudy
75 °F
Feels Like 72 °F
N
4
Wind Variable Wind from SSW
Gusts 13.0 mph

Today
High -- | Low -- °F
--% Chance of Precip.
Yesterday
High -- | Low -- °F
Precip. -- in
7:07 AM 8:26 PM
Waning Gibbous, 88% visible
Pressure 29.98 in
Visibility 10.0 miles
Clouds Scattered Clouds 500 ft
Heat Index 72 °F
Dew Point 75 °F
Humidity 100%
Rainfall in
Snow Depth Not available.
UV 4 out of 12
Pollen 10.20 out of 12
Air Quality Not available.
Flu Activity Not available.
METAR KSAW 011505Z 21004KT 10SM SCT005 22/20 A2998
Pressure 29.98 in
Visibility 10.0 miles
Clouds Scattered Clouds 500 ft
Heat Index 72 °F
Dew Point 75 °F
Humidity 100%
Rainfall in
Snow Depth Not available.
UV 4 out of 12
Pollen 10.20 out of 12
Air Quality Not available.
Flu Activity Not available.
METAR KSAW 011505Z 21004KT 10SM SCT005 22/20 A2998

10-Day Weather Forecast

×

Almanac

Astronomy

Sep. 01, 2015 Rise Set
Actual Time
Civil Twilight
Nautical Twilight
Astronomical Twilight
Moon
Length of Visible Light
Length of Day
Tomorrow will be .
, % of the Moon is Illuminated

Today's Extremes

State Highs State Lows

Community

WunderPhotos

Upload Photos

1,851,523 photos uploaded!

WunderBlogs® & News

Nearby

Air Quality

  Air Quality AQ Index Pollutant
Not available.

Snow Depth

Station Depth Elevation

Earthquake Activity

City Distance Mag. Time & Date
Minimum magnitude displayed is 2.5.

Coastal Water Temperatures

Place Temperature

Stations

Nearby Weather Stations

Station Location Temp. Windchill Dew Point Humidity Wind Precip. Elev Updated Type